createdAt,value
2023-06-17T00:00:24.419Z,88.62
2023-06-17T00:01:24.459Z,88.82
2023-06-17T00:02:24.464Z,88.92
2023-06-17T00:03:24.490Z,88.72
2023-06-17T00:04:24.361Z,88.52
2023-06-17T00:05:24.357Z,88.22
2023-06-17T00:06:24.371Z,88.52
2023-06-17T00:07:24.365Z,88.82
2023-06-17T00:08:24.327Z,88.72
2023-06-17T00:09:24.315Z,88.92
2023-06-17T00:10:24.302Z,88.82
2023-06-17T00:11:24.363Z,88.62
2023-06-17T00:12:24.303Z,89.03
2023-06-17T00:13:24.267Z,88.62
2023-06-17T00:14:24.284Z,88.92
2023-06-17T00:15:24.269Z,88.82
2023-06-17T00:16:24.244Z,88.82
2023-06-17T00:17:24.255Z,88.62
2023-06-17T00:18:24.222Z,88.82
2023-06-17T00:19:24.204Z,88.92
2023-06-17T00:20:24.433Z,88.92
2023-06-17T00:21:24.181Z,88.92
2023-06-17T00:22:24.181Z,88.82
2023-06-17T00:23:24.145Z,88.92
2023-06-17T00:24:24.216Z,89.23
2023-06-17T00:25:24.138Z,89.12
2023-06-17T00:26:24.117Z,89.12
2023-06-17T00:27:24.129Z,89.47
2023-06-17T00:28:24.104Z,89.26
2023-06-17T00:29:24.098Z,89.47
2023-06-17T00:30:24.158Z,89.57
2023-06-17T00:31:24.065Z,89.37
2023-06-17T00:32:24.102Z,89.47
2023-06-17T00:33:24.046Z,89.06
2023-06-17T00:34:24.036Z,89.03
2023-06-17T00:35:24.012Z,88.62
2023-06-17T00:36:24.021Z,88.52
2023-06-17T00:37:24.010Z,88.72
2023-06-17T00:38:24.023Z,88.62
2023-06-17T00:39:23.989Z,88.72
2023-06-17T00:40:23.957Z,89.03
2023-06-17T00:41:23.980Z,89.03
2023-06-17T00:42:23.956Z,88.92
2023-06-17T00:43:23.949Z,89.23
2023-06-17T00:44:23.918Z,89.12
2023-06-17T00:45:23.909Z,88.72
2023-06-17T00:46:23.957Z,89.03
2023-06-17T00:47:23.905Z,88.92
2023-06-17T00:48:23.877Z,89.12
2023-06-17T00:49:23.874Z,88.82
2023-06-17T00:50:24.002Z,89.12
2023-06-17T00:51:23.833Z,89.23
2023-06-17T00:52:40.400Z,89.32
2023-06-17T00:53:23.820Z,89.53
2023-06-17T00:54:23.804Z,89.23
2023-06-17T00:55:23.804Z,89.43
2023-06-17T00:56:23.802Z,89.43
2023-06-17T00:57:23.789Z,89.23
2023-06-17T00:58:23.819Z,89.12
2023-06-17T00:59:23.757Z,89.12
2023-06-17T01:00:24.002Z,89.23
2023-06-17T01:01:23.750Z,89.12
2023-06-17T01:02:23.739Z,89.12
2023-06-17T01:03:23.804Z,89.12
2023-06-17T01:04:23.690Z,88.92
2023-06-17T01:05:23.712Z,88.62
2023-06-17T01:06:23.674Z,88.62
2023-06-17T01:07:23.679Z,88.82
2023-06-17T01:08:23.663Z,88.72
2023-06-17T01:09:23.626Z,88.72
2023-06-17T01:10:23.792Z,88.52
2023-06-17T01:11:23.622Z,88.62
2023-06-17T01:12:23.642Z,88.22
2023-06-17T01:13:23.621Z,88.12
2023-06-17T01:14:23.589Z,88.02
2023-06-17T01:15:23.571Z,88.32
2023-06-17T01:16:23.603Z,88.92
2023-06-17T01:17:23.562Z,88.82
2023-06-17T01:18:23.554Z,88.92
2023-06-17T01:19:23.532Z,89.32
2023-06-17T01:20:23.835Z,88.82
2023-06-17T01:21:23.505Z,88.92
2023-06-17T01:22:23.523Z,89.12
2023-06-17T01:23:23.569Z,88.92
2023-06-17T01:24:23.483Z,88.72
2023-06-17T01:25:23.452Z,88.62
2023-06-17T01:26:23.463Z,88.92
2023-06-17T01:27:23.448Z,88.92
2023-06-17T01:28:23.457Z,88.72
2023-06-17T01:29:23.409Z,88.82
2023-06-17T01:30:23.586Z,88.82
2023-06-17T01:31:23.410Z,88.62
2023-06-17T01:32:23.414Z,88.62
2023-06-17T01:33:23.381Z,88.72
2023-06-17T01:34:23.345Z,88.72
2023-06-17T01:35:23.343Z,88.92
2023-06-17T01:36:23.339Z,88.82
2023-06-17T01:37:23.310Z,88.92
2023-06-17T01:38:23.328Z,88.62
2023-06-17T01:39:23.302Z,88.72
2023-06-17T01:40:23.545Z,88.52
2023-06-17T01:41:23.276Z,88.62
2023-06-17T01:42:23.251Z,88.52
2023-06-17T01:43:23.268Z,88.82
2023-06-17T01:44:23.239Z,88.92
2023-06-17T01:45:23.247Z,88.82
2023-06-17T01:46:23.277Z,88.72
2023-06-17T01:47:23.254Z,88.72
2023-06-17T01:48:23.207Z,88.62
2023-06-17T01:49:23.186Z,88.42
2023-06-17T01:50:23.451Z,88.62
2023-06-17T01:51:23.272Z,88.62
2023-06-17T01:52:23.145Z,88.72
2023-06-17T01:53:23.168Z,88.82
2023-06-17T01:54:23.139Z,88.82
2023-06-17T01:55:23.154Z,88.72
2023-06-17T01:56:23.103Z,89.03
2023-06-17T01:57:23.103Z,88.62
2023-06-17T01:58:23.115Z,88.42
2023-06-17T01:59:23.100Z,88.52
2023-06-17T02:00:23.266Z,88.62
2023-06-17T02:01:23.055Z,88.62
2023-06-17T02:02:23.066Z,88.62
2023-06-17T02:03:23.202Z,88.52
2023-06-17T02:04:23.048Z,88.62
2023-06-17T02:05:23.018Z,88.82
2023-06-17T02:06:23.012Z,88.92
2023-06-17T02:07:22.986Z,89.12
2023-06-17T02:08:23.009Z,89.03
2023-06-17T02:09:22.973Z,88.72
2023-06-17T02:10:23.135Z,88.62
2023-06-17T02:11:22.938Z,88.62
2023-06-17T02:12:22.934Z,88.72
2023-06-17T02:13:22.942Z,88.82
2023-06-17T02:14:22.909Z,88.72
2023-06-17T02:15:22.900Z,88.42
2023-06-17T02:16:22.922Z,88.82
2023-06-17T02:17:22.884Z,88.72
2023-06-17T02:18:22.875Z,88.62
2023-06-17T02:19:22.844Z,88.62
2023-06-17T02:20:23.024Z,88.52
2023-06-17T02:21:22.838Z,88.52
2023-06-17T02:22:22.923Z,88.82
2023-06-17T02:23:22.833Z,88.92
2023-06-17T02:24:22.828Z,88.82
2023-06-17T02:25:22.799Z,88.82
2023-06-17T02:26:22.776Z,88.82
2023-06-17T02:27:22.850Z,88.62
2023-06-17T02:28:22.787Z,88.62
2023-06-17T02:29:22.746Z,88.42
2023-06-17T02:30:23.011Z,88.42
2023-06-17T02:31:22.791Z,88.62
2023-06-17T02:32:22.709Z,88.82
2023-06-17T02:33:22.720Z,88.72
2023-06-17T02:34:22.699Z,88.72
2023-06-17T02:35:22.700Z,88.72
2023-06-17T02:36:22.687Z,88.82
2023-06-17T02:37:22.688Z,88.52
2023-06-17T02:38:22.677Z,88.72
2023-06-17T02:39:22.650Z,88.92
2023-06-17T02:40:22.918Z,88.52
2023-06-17T02:41:22.609Z,88.42
2023-06-17T02:42:22.590Z,88.42
2023-06-17T02:43:22.623Z,88.52
2023-06-17T02:44:22.581Z,88.42
2023-06-17T02:45:22.590Z,88.82
2023-06-17T02:46:22.590Z,88.72
2023-06-17T02:47:22.541Z,89.03
2023-06-17T02:48:22.542Z,88.72
2023-06-17T02:49:22.519Z,89.03
2023-06-17T02:50:22.656Z,89.43
2023-06-17T02:51:22.488Z,89.23
2023-06-17T02:52:22.492Z,89.23
2023-06-17T02:53:22.492Z,89.26
2023-06-17T02:54:22.544Z,89.26
2023-06-17T02:55:22.465Z,89.26
2023-06-17T02:56:22.432Z,89.26
2023-06-17T02:57:22.472Z,89.06
2023-06-17T02:58:22.444Z,89.17
2023-06-17T02:59:22.439Z,89.12
2023-06-17T03:00:22.661Z,89.32
2023-06-17T03:01:22.496Z,89.23
2023-06-17T03:02:22.477Z,89.12
2023-06-17T03:03:22.425Z,88.82
2023-06-17T03:04:22.356Z,88.82
2023-06-17T03:05:22.366Z,89.12
2023-06-17T03:06:22.322Z,89.23
2023-06-17T03:07:22.345Z,89.32
2023-06-17T03:08:22.313Z,89.32
2023-06-17T03:09:22.302Z,89.32
2023-06-17T03:10:22.529Z,89.43
2023-06-17T03:11:22.267Z,89.53
2023-06-17T03:12:22.289Z,89.53
2023-06-17T03:13:22.264Z,89.53
2023-06-17T03:14:22.236Z,89.43
2023-06-17T03:15:22.249Z,89.23
2023-06-17T03:16:22.317Z,89.12
2023-06-17T03:17:22.228Z,89.03
2023-06-17T03:18:22.210Z,89.03
2023-06-17T03:19:22.170Z,88.72
2023-06-17T03:20:22.486Z,88.82
2023-06-17T03:21:22.160Z,88.42
2023-06-17T03:22:22.156Z,88.42
2023-06-17T03:23:22.166Z,88.72
2023-06-17T03:24:22.154Z,88.72
2023-06-17T03:25:22.123Z,88.42
2023-06-17T03:26:22.113Z,88.42
2023-06-17T03:27:22.125Z,89.03
2023-06-17T03:28:22.095Z,88.92
2023-06-17T03:29:22.129Z,88.82
2023-06-17T03:30:22.274Z,88.72
2023-06-17T03:31:22.106Z,88.82
2023-06-17T03:32:22.093Z,88.92
2023-06-17T03:33:22.032Z,88.82
2023-06-17T03:34:22.014Z,88.82
2023-06-17T03:35:22.009Z,89.03
2023-06-17T03:36:21.981Z,88.92
2023-06-17T03:37:22.031Z,88.82
2023-06-17T03:38:21.996Z,88.82
2023-06-17T03:39:21.956Z,88.82
2023-06-17T03:40:22.277Z,89.12
2023-06-17T03:41:21.989Z,89.12
2023-06-17T03:42:21.934Z,89.12
2023-06-17T03:43:21.934Z,89.03
2023-06-17T03:44:21.905Z,88.72
2023-06-17T03:45:21.910Z,88.62
2023-06-17T03:46:21.892Z,88.82
2023-06-17T03:47:21.867Z,88.82
2023-06-17T03:48:21.876Z,88.92
2023-06-17T03:49:21.861Z,89.03
2023-06-17T03:50:22.090Z,88.92
2023-06-17T03:51:21.840Z,88.82
2023-06-17T03:52:21.826Z,88.92
2023-06-17T03:53:21.815Z,89.03
2023-06-17T03:54:21.808Z,88.42
2023-06-17T03:55:21.835Z,88.62
2023-06-17T03:56:21.759Z,88.72
2023-06-17T03:57:21.775Z,88.62
2023-06-17T03:58:21.764Z,88.62
2023-06-17T03:59:21.742Z,88.82
2023-06-17T04:00:21.950Z,88.52
2023-06-17T04:01:21.709Z,88.12
2023-06-17T04:02:21.789Z,88.52
2023-06-17T04:03:21.778Z,88.02
2023-06-17T04:04:21.733Z,88.32
2023-06-17T04:05:21.682Z,88.42
2023-06-17T04:06:21.652Z,88.58
2023-06-17T04:07:21.654Z,88.42
2023-06-17T04:08:21.661Z,88.07
2023-06-17T04:09:21.625Z,88.38
2023-06-17T04:10:21.624Z,88.82
2023-06-17T04:11:21.601Z,88.92
2023-06-17T04:12:21.586Z,88.62
2023-06-17T04:13:21.604Z,88.92
2023-06-17T04:14:21.561Z,89.03
2023-06-17T04:15:21.579Z,88.92
2023-06-17T04:16:21.548Z,89.23
2023-06-17T04:17:21.529Z,89.12
2023-06-17T04:18:21.601Z,89.23
2023-06-17T04:19:21.515Z,89.32
2023-06-17T04:20:21.725Z,89.43
2023-06-17T04:21:21.534Z,89.73
2023-06-17T04:22:21.492Z,89.77
2023-06-17T04:23:21.468Z,89.37
2023-06-17T04:24:21.589Z,89.32
2023-06-17T04:25:21.435Z,89.43
2023-06-17T04:26:21.435Z,89.12
2023-06-17T04:27:21.426Z,89.32
2023-06-17T04:28:21.435Z,88.82
2023-06-17T04:29:21.402Z,88.82
2023-06-17T04:30:21.622Z,88.72
2023-06-17T04:31:21.382Z,88.62
2023-06-17T04:32:21.373Z,88.82
2023-06-17T04:33:21.384Z,89.03
2023-06-17T04:34:21.338Z,89.18
2023-06-17T04:35:21.333Z,88.48
2023-06-17T04:36:21.314Z,88.38
2023-06-17T04:37:21.315Z,88.78
2023-06-17T04:38:21.320Z,88.78
2023-06-17T04:39:21.295Z,88.78
2023-06-17T04:40:21.472Z,89.08
2023-06-17T04:41:21.249Z,88.88
2023-06-17T04:42:21.249Z,88.58
2023-06-17T04:43:21.256Z,88.48
2023-06-17T04:44:21.251Z,88.38
2023-06-17T04:45:21.222Z,88.28
2023-06-17T04:46:21.273Z,88.28
2023-06-17T04:47:21.266Z,88.07
2023-06-17T04:48:21.185Z,87.98
2023-06-17T04:49:21.193Z,88.48
2023-06-17T04:50:21.424Z,87.87
2023-06-17T04:51:21.144Z,88.48
2023-06-17T04:52:27.688Z,88.48
2023-06-17T04:53:21.125Z,88.38
2023-06-17T04:54:21.126Z,88.28
2023-06-17T04:55:21.112Z,88.38
2023-06-17T04:56:21.205Z,87.98
2023-06-17T04:57:21.081Z,88.48
2023-06-17T04:58:21.083Z,88.07
2023-06-17T04:59:21.083Z,88.07
2023-06-17T05:00:22.492Z,88.18
2023-06-17T05:01:21.072Z,88.07
2023-06-17T05:02:21.053Z,88.07
2023-06-17T05:03:21.047Z,87.98
2023-06-17T05:04:21.017Z,87.98
2023-06-17T05:05:20.996Z,87.87
2023-06-17T05:06:20.989Z,88.07
2023-06-17T05:07:20.960Z,88.48
2023-06-17T05:08:20.954Z,88.58
2023-06-17T05:09:20.965Z,88.28
2023-06-17T05:10:21.249Z,88.68
2023-06-17T05:11:20.926Z,88.58
2023-06-17T05:12:20.929Z,88.68
2023-06-17T05:13:20.903Z,88.68
2023-06-17T05:14:20.902Z,88.28
2023-06-17T05:15:20.875Z,88.07
2023-06-17T05:16:20.883Z,88.58
2023-06-17T05:17:20.895Z,87.98
2023-06-17T05:18:20.843Z,87.77
2023-06-17T05:19:20.850Z,88.07
2023-06-17T05:20:21.061Z,88.48
2023-06-17T05:21:20.811Z,88.38
2023-06-17T05:22:20.809Z,88.18
2023-06-17T05:23:20.784Z,88.07
2023-06-17T05:24:20.804Z,88.13
2023-06-17T05:25:20.775Z,88.03
2023-06-17T05:26:20.758Z,88.13
2023-06-17T05:27:20.743Z,88.13
2023-06-17T05:28:20.749Z,87.73
2023-06-17T05:29:20.717Z,87.73
2023-06-17T05:30:20.929Z,87.63
2023-06-17T05:31:20.756Z,87.73
2023-06-17T05:32:20.685Z,87.73
2023-06-17T05:33:20.677Z,87.63
2023-06-17T05:34:20.674Z,87.43
2023-06-17T05:35:20.660Z,86.83
2023-06-17T05:36:20.664Z,87.63
2023-06-17T05:37:20.626Z,87.83
2023-06-17T05:38:20.620Z,87.69
2023-06-17T05:39:20.606Z,87.49
2023-06-17T05:40:20.905Z,86.99
2023-06-17T05:41:20.588Z,86.79
2023-06-17T05:42:20.597Z,86.79
2023-06-17T05:43:20.568Z,86.88
2023-06-17T05:44:20.561Z,86.38
2023-06-17T05:45:20.548Z,86.58
2023-06-17T05:46:20.627Z,86.68
2023-06-17T05:47:20.536Z,86.88
2023-06-17T05:48:20.513Z,86.48
2023-06-17T05:49:20.500Z,86.38
2023-06-17T05:50:20.861Z,86.34
2023-06-17T05:51:20.477Z,86.44
2023-06-17T05:52:20.481Z,86.24
2023-06-17T05:53:20.480Z,86.04
2023-06-17T05:54:20.456Z,86.04
2023-06-17T05:55:20.436Z,86.14
2023-06-17T05:56:20.425Z,86.54
2023-06-17T05:57:20.413Z,86.18
2023-06-17T05:58:20.411Z,86.58
2023-06-17T05:59:20.411Z,86.58
2023-06-17T06:00:20.735Z,86.48
2023-06-17T06:01:20.445Z,86.04
2023-06-17T06:02:20.366Z,86.04
2023-06-17T06:03:20.373Z,86.14
2023-06-17T06:04:20.367Z,85.94
2023-06-17T06:05:20.362Z,85.94
2023-06-17T06:06:20.331Z,86.48
2023-06-17T06:07:20.308Z,85.98
2023-06-17T06:08:20.296Z,86.04
2023-06-17T06:09:20.285Z,86.04
2023-06-17T06:10:20.597Z,86.14
2023-06-17T06:11:20.255Z,86.24
2023-06-17T06:12:20.257Z,86.34
2023-06-17T06:13:20.239Z,86.74
2023-06-17T06:14:20.235Z,86.68
2023-06-17T06:15:20.240Z,86.38
2023-06-17T06:16:20.260Z,86.18
2023-06-17T06:17:20.199Z,86.34
2023-06-17T06:18:20.195Z,86.65
2023-06-17T06:19:20.164Z,86.74
2023-06-17T06:20:20.479Z,86.44
2023-06-17T06:21:20.170Z,86.34
2023-06-17T06:22:20.159Z,86.54
2023-06-17T06:23:20.130Z,86.34
2023-06-17T06:24:20.152Z,86.24
2023-06-17T06:25:20.131Z,86.54
2023-06-17T06:26:20.098Z,86.54
2023-06-17T06:27:20.094Z,85.94
2023-06-17T06:28:20.073Z,86.04
2023-06-17T06:29:20.094Z,86.04
2023-06-17T06:30:20.251Z,86.74
2023-06-17T06:31:20.041Z,86.74
2023-06-17T06:32:20.039Z,86.65
2023-06-17T06:33:20.019Z,86.54
2023-06-17T06:34:20.021Z,86.54
2023-06-17T06:35:20.015Z,86.65
2023-06-17T06:36:19.980Z,86.24
2023-06-17T06:37:19.972Z,86.54
2023-06-17T06:38:19.962Z,86.24
2023-06-17T06:39:19.966Z,86.54
2023-06-17T06:40:20.276Z,86.14
2023-06-17T06:41:19.926Z,85.74
2023-06-17T06:42:19.930Z,86.20
2023-06-17T06:43:19.912Z,86.30
2023-06-17T06:44:19.895Z,85.39
2023-06-17T06:45:19.911Z,85.60
2023-06-17T06:46:19.898Z,85.39
2023-06-17T06:47:19.881Z,86.00
2023-06-17T06:48:19.847Z,85.90
2023-06-17T06:49:19.840Z,85.60
2023-06-17T06:50:20.033Z,85.19
2023-06-17T06:51:19.816Z,86.04
2023-06-17T06:52:19.816Z,86.34
2023-06-17T06:53:19.793Z,86.34
2023-06-17T06:54:19.785Z,86.30
2023-06-17T06:55:19.796Z,86.20
2023-06-17T06:56:19.763Z,85.90
2023-06-17T06:57:19.757Z,85.90
2023-06-17T06:58:19.747Z,86.10
2023-06-17T06:59:19.738Z,86.00
2023-06-17T07:00:20.095Z,85.70
2023-06-17T07:01:19.800Z,85.50
2023-06-17T07:02:19.714Z,85.50
2023-06-17T07:03:19.685Z,85.19
2023-06-17T07:04:19.693Z,84.89
2023-06-17T07:05:19.681Z,84.99
2023-06-17T07:06:19.660Z,84.95
2023-06-17T07:07:19.644Z,84.85
2023-06-17T07:08:19.643Z,85.36
2023-06-17T07:09:19.615Z,85.46
2023-06-17T07:10:19.755Z,85.36
2023-06-17T07:11:19.590Z,85.16
2023-06-17T07:12:19.584Z,85.05
2023-06-17T07:13:19.571Z,85.36
2023-06-17T07:14:19.569Z,84.95
2023-06-17T07:15:19.570Z,84.85
2023-06-17T07:16:19.606Z,85.25
2023-06-17T07:17:19.546Z,84.65
2023-06-17T07:18:19.515Z,84.95
2023-06-17T07:19:19.511Z,84.35
2023-06-17T07:20:19.966Z,85.25
2023-06-17T07:21:19.495Z,85.25
2023-06-17T07:22:19.470Z,84.75
2023-06-17T07:23:19.464Z,85.16
2023-06-17T07:24:19.487Z,85.46
2023-06-17T07:25:19.436Z,85.56
2023-06-17T07:26:19.437Z,85.46
2023-06-17T07:27:19.417Z,85.46
2023-06-17T07:28:19.408Z,85.25
2023-06-17T07:29:19.389Z,85.56
2023-06-17T07:30:19.681Z,85.56
2023-06-17T07:31:19.461Z,85.36
2023-06-17T07:32:19.400Z,84.95
2023-06-17T07:33:19.410Z,85.05
2023-06-17T07:34:19.330Z,84.95
2023-06-17T07:35:19.334Z,84.95
2023-06-17T07:36:19.311Z,84.65
2023-06-17T07:37:19.324Z,84.55
2023-06-17T07:38:19.311Z,85.16
2023-06-17T07:39:19.292Z,85.36
2023-06-17T07:40:19.555Z,84.65
2023-06-17T07:41:19.260Z,85.56
2023-06-17T07:42:19.263Z,85.66
2023-06-17T07:43:19.238Z,85.46
2023-06-17T07:44:19.224Z,84.85
2023-06-17T07:45:19.222Z,85.36
2023-06-17T07:46:19.239Z,85.16
2023-06-17T07:47:19.218Z,85.02
2023-06-17T07:48:19.314Z,85.22
2023-06-17T07:49:19.184Z,85.41
2023-06-17T07:50:19.485Z,84.41
2023-06-17T07:51:19.149Z,84.17
2023-06-17T07:52:19.166Z,84.57
2023-06-17T07:53:19.131Z,84.27
2023-06-17T07:54:19.114Z,84.17
2023-06-17T07:55:19.125Z,84.07
2023-06-17T07:56:19.095Z,83.57
2023-06-17T07:57:19.094Z,83.63
2023-06-17T07:58:19.080Z,82.82
2023-06-17T07:59:19.076Z,82.59
2023-06-17T08:00:19.567Z,82.59
2023-06-17T08:01:19.095Z,82.59
2023-06-17T08:02:19.103Z,81.65
2023-06-17T08:03:19.091Z,81.45
2023-06-17T08:04:19.033Z,81.35
2023-06-17T08:05:18.997Z,81.11
2023-06-17T08:06:18.986Z,81.51
2023-06-17T08:07:18.987Z,81.51
2023-06-17T08:08:18.957Z,81.11
2023-06-17T08:09:18.952Z,80.36
2023-06-17T08:10:19.118Z,80.67
2023-06-17T08:11:18.926Z,80.77
2023-06-17T08:12:18.939Z,80.27
2023-06-17T08:13:18.917Z,80.17
2023-06-17T08:14:18.905Z,80.17
2023-06-17T08:15:18.888Z,79.97
2023-06-17T08:16:18.918Z,79.47
2023-06-17T08:17:18.874Z,79.97
2023-06-17T08:18:18.848Z,79.57
2023-06-17T08:19:18.841Z,78.93
2023-06-17T08:20:19.180Z,79.03
2023-06-17T08:21:18.821Z,78.53
2023-06-17T08:22:18.827Z,78.23
2023-06-17T08:23:18.812Z,78.29
2023-06-17T08:24:18.781Z,78.29
2023-06-17T08:25:18.773Z,77.99
2023-06-17T08:26:18.758Z,77.89
2023-06-17T08:27:18.775Z,77.79
2023-06-17T08:28:18.745Z,77.56
2023-06-17T08:29:18.736Z,77.15
2023-06-17T08:30:19.379Z,77.25
2023-06-17T08:31:18.712Z,77.15
2023-06-17T08:32:18.723Z,77.36
2023-06-17T08:33:18.685Z,77.06
2023-06-17T08:34:18.676Z,76.99
2023-06-17T08:35:18.664Z,77.63
2023-06-17T08:36:18.653Z,78.23
2023-06-17T08:37:18.656Z,78.43
2023-06-17T08:38:18.638Z,78.63
2023-06-17T08:39:18.619Z,78.53
2023-06-17T08:40:18.988Z,78.53
2023-06-17T08:41:18.602Z,78.43
2023-06-17T08:42:18.601Z,78.49
2023-06-17T08:43:18.577Z,77.59
2023-06-17T08:44:18.568Z,77.39
2023-06-17T08:45:18.547Z,77.09
2023-06-17T08:46:18.554Z,76.76
2023-06-17T08:47:18.608Z,75.76
2023-06-17T08:48:18.517Z,75.82
2023-06-17T08:49:18.526Z,75.62
2023-06-17T08:50:18.621Z,74.82
2023-06-17T08:51:18.596Z,74.82
2023-06-17T08:52:18.492Z,75.68
2023-06-17T08:53:18.504Z,75.68
2023-06-17T08:54:18.458Z,76.08
2023-06-17T08:55:18.496Z,75.89
2023-06-17T08:56:18.438Z,76.02
2023-06-17T08:57:19.442Z,76.12
2023-06-17T08:58:18.430Z,76.02
2023-06-17T08:59:18.592Z,76.02
2023-06-17T09:00:18.787Z,76.26
2023-06-17T09:01:18.438Z,76.26
2023-06-17T09:02:18.402Z,76.76
2023-06-17T09:03:18.355Z,77.36
2023-06-17T09:04:18.355Z,77.02
2023-06-17T09:05:18.418Z,75.92
2023-06-17T09:06:18.325Z,75.48
2023-06-17T09:07:18.366Z,75.78
2023-06-17T09:08:18.306Z,75.15
2023-06-17T09:09:18.289Z,74.85
2023-06-17T09:10:18.416Z,74.71
2023-06-17T09:11:18.276Z,74.11
2023-06-17T09:12:18.268Z,74.11
2023-06-17T09:13:18.278Z,73.48
2023-06-17T09:14:18.316Z,73.55
2023-06-17T09:15:18.234Z,72.65
2023-06-17T09:16:18.243Z,72.25
2023-06-17T09:17:18.279Z,71.75
2023-06-17T09:18:18.289Z,72.08
2023-06-17T09:19:18.180Z,72.88
2023-06-17T09:20:18.578Z,73.32
2023-06-17T09:21:18.178Z,73.75
2023-06-17T09:22:18.161Z,74.25
2023-06-17T09:23:18.148Z,74.45
2023-06-17T09:24:18.189Z,74.65
2023-06-17T09:25:18.122Z,74.58
2023-06-17T09:26:18.101Z,74.49
2023-06-17T09:27:18.090Z,75.28
2023-06-17T09:28:18.091Z,75.52
2023-06-17T09:29:18.093Z,75.68
2023-06-17T09:30:18.129Z,75.55
2023-06-17T09:31:18.046Z,74.62
2023-06-17T09:32:18.033Z,73.72
2023-06-17T09:33:18.041Z,72.58
2023-06-17T09:34:18.058Z,72.05
2023-06-17T09:35:18.006Z,71.32
2023-06-17T09:36:17.986Z,70.62
2023-06-17T09:37:17.981Z,70.59
2023-06-17T09:38:17.970Z,70.75
2023-06-17T09:39:17.980Z,70.15
2023-06-17T09:40:18.225Z,69.96
2023-06-17T09:41:17.950Z,70.75
2023-06-17T09:42:17.931Z,70.79
2023-06-17T09:44:16.900Z,71.42
2023-06-17T09:45:17.923Z,72.25
2023-06-17T09:46:17.932Z,72.35
2023-06-17T09:47:17.879Z,71.75
2023-06-17T09:48:17.891Z,71.98
2023-06-17T09:49:17.871Z,72.88
2023-06-17T09:50:17.882Z,72.49
2023-06-17T09:51:17.853Z,72.45
2023-06-17T09:52:17.831Z,72.81
2023-06-17T09:53:17.812Z,72.71
2023-06-17T09:54:17.795Z,71.58
2023-06-17T09:55:17.811Z,70.89
2023-06-17T09:56:17.786Z,70.19
2023-06-17T09:57:17.797Z,70.39
2023-06-17T09:58:17.767Z,70.68
2023-06-17T09:59:17.770Z,71.19
2023-06-17T10:00:17.913Z,70.75
2023-06-17T10:01:17.728Z,70.36
2023-06-17T10:02:17.746Z,70.26
2023-06-17T10:03:17.804Z,70.79
2023-06-17T10:04:17.762Z,70.59
2023-06-17T10:05:17.690Z,70.52
2023-06-17T10:06:17.677Z,71.05
2023-06-17T10:07:17.680Z,71.55
2023-06-17T10:08:17.660Z,72.08
2023-06-17T10:09:17.632Z,72.49
2023-06-17T10:10:17.695Z,73.22
2023-06-17T10:11:17.612Z,73.08
2023-06-17T10:12:17.605Z,73.78
2023-06-17T10:13:17.608Z,72.88
2023-06-17T10:14:17.581Z,73.42
2023-06-17T10:15:17.591Z,73.72
2023-06-17T10:16:17.560Z,73.32
2023-06-17T10:17:17.552Z,73.32
2023-06-17T10:18:17.543Z,73.11
2023-06-17T10:19:17.570Z,72.52
2023-06-17T10:20:17.518Z,72.28
2023-06-17T10:21:17.572Z,72.05
2023-06-17T10:22:17.503Z,71.35
2023-06-17T10:23:17.487Z,70.92
2023-06-17T10:24:17.508Z,70.59
2023-06-17T10:25:17.479Z,70.19
2023-06-17T10:26:17.453Z,69.85
2023-06-17T10:27:17.446Z,69.13
2023-06-17T10:28:17.433Z,68.93
2023-06-17T10:29:17.421Z,66.41
2023-06-17T10:30:17.437Z,65.72
2023-06-17T10:31:17.390Z,67.30
2023-06-17T10:32:17.386Z,67.30
2023-06-17T10:33:17.437Z,67.90
2023-06-17T10:34:17.366Z,67.67
2023-06-17T10:35:17.370Z,67.97
2023-06-17T10:36:17.337Z,67.83
2023-06-17T10:37:17.338Z,66.05
2023-06-17T10:38:17.321Z,66.08
2023-06-17T10:39:17.305Z,66.67
2023-06-17T10:40:17.311Z,65.68
2023-06-17T10:41:17.279Z,65.48
2023-06-17T10:42:17.287Z,64.79
2023-06-17T10:43:17.272Z,65.42
2023-06-17T10:44:17.250Z,66.51
2023-06-17T10:45:17.236Z,66.31
2023-06-17T10:46:17.284Z,65.61
2023-06-17T10:47:17.224Z,66.08
2023-06-17T10:48:17.210Z,66.38
2023-06-17T10:49:17.198Z,64.86
2023-06-17T10:50:17.200Z,64.86
2023-06-17T10:51:17.172Z,64.76
2023-06-17T10:53:18.449Z,64.53
2023-06-17T10:54:19.441Z,63.73
2023-06-17T10:55:19.419Z,63.80
2023-06-17T10:56:19.407Z,63.90
2023-06-17T10:57:19.413Z,64.00
2023-06-17T10:58:19.387Z,63.80
2023-06-17T10:59:19.378Z,63.67
2023-06-17T11:00:19.641Z,62.98
2023-06-17T11:01:19.355Z,63.01
2023-06-17T11:02:19.372Z,63.51
2023-06-17T11:03:19.513Z,63.60
2023-06-17T11:04:19.329Z,64.20
2023-06-17T11:05:19.322Z,62.41
2023-06-17T11:06:19.318Z,62.41
2023-06-17T11:07:19.315Z,62.71
2023-06-17T11:08:19.284Z,62.41
2023-06-17T11:09:19.296Z,61.62
2023-06-17T11:10:19.315Z,61.49
2023-06-17T11:11:19.256Z,62.29
2023-06-17T11:12:19.248Z,60.89
2023-06-17T11:13:19.241Z,59.58
2023-06-17T11:14:19.219Z,59.58
2023-06-17T11:15:19.234Z,59.67
2023-06-17T11:16:19.219Z,58.88
2023-06-17T11:17:19.224Z,60.00
2023-06-17T11:18:19.189Z,60.89
2023-06-17T11:19:19.175Z,60.96
2023-06-17T11:20:19.373Z,60.96
2023-06-17T11:21:19.177Z,61.13
2023-06-17T11:22:19.142Z,60.64
2023-06-17T11:23:19.126Z,59.97
2023-06-17T11:24:19.153Z,60.77
2023-06-17T11:25:19.648Z,60.96
2023-06-17T11:26:19.100Z,61.07
2023-06-17T11:27:19.077Z,60.44
2023-06-17T11:28:19.090Z,60.34
2023-06-17T11:29:19.084Z,61.30
2023-06-17T11:30:19.396Z,60.41
2023-06-17T11:31:19.059Z,59.19
2023-06-17T11:32:19.032Z,58.28
2023-06-17T11:33:19.012Z,58.25
2023-06-17T11:34:19.009Z,58.15
2023-06-17T11:35:19.007Z,57.35
2023-06-17T11:36:19.007Z,56.99
2023-06-17T11:37:18.972Z,57.21
2023-06-17T11:38:18.971Z,58.63
2023-06-17T11:39:18.959Z,59.42
2023-06-17T11:40:19.151Z,58.83
2023-06-17T11:41:18.961Z,58.03
2023-06-17T11:42:18.955Z,58.92
2023-06-17T11:43:18.903Z,58.83
2023-06-17T11:44:18.917Z,59.92
2023-06-17T11:45:18.894Z,59.35
2023-06-17T11:46:18.913Z,59.08
2023-06-17T11:47:18.900Z,60.17
2023-06-17T11:48:18.874Z,60.37
2023-06-17T11:49:18.839Z,60.20
2023-06-17T11:50:19.198Z,60.40
2023-06-17T11:51:20.774Z,60.63
2023-06-17T11:52:18.815Z,60.85
2023-06-17T11:53:18.823Z,61.15
2023-06-17T11:54:18.797Z,61.35
2023-06-17T11:55:18.797Z,61.55
2023-06-17T11:56:18.769Z,61.32
2023-06-17T11:57:18.771Z,61.29
2023-06-17T11:58:18.750Z,60.17
2023-06-17T11:59:18.753Z,59.45
2023-06-17T12:00:18.913Z,58.13
2023-06-17T12:01:18.715Z,56.82
2023-06-17T12:02:18.824Z,56.32
2023-06-17T12:03:18.732Z,55.53
2023-06-17T12:04:18.757Z,56.52
2023-06-17T12:05:18.691Z,54.94
2023-06-17T12:06:18.661Z,55.04
2023-06-17T12:07:18.646Z,55.30
2023-06-17T12:08:18.661Z,55.01
2023-06-17T12:09:18.627Z,54.81
2023-06-17T12:10:19.028Z,54.59
2023-06-17T12:11:18.631Z,54.29
2023-06-17T12:12:18.597Z,55.26
2023-06-17T12:13:18.590Z,55.75
2023-06-17T12:14:18.583Z,56.21
2023-06-17T12:15:18.593Z,56.31
2023-06-17T12:16:19.174Z,55.82
2023-06-17T12:17:18.549Z,56.12
2023-06-17T12:18:18.533Z,55.60
2023-06-17T12:19:18.531Z,54.78
2023-06-17T12:20:18.572Z,54.09
2023-06-17T12:21:18.504Z,53.10
2023-06-17T12:22:18.499Z,53.79
2023-06-17T12:23:18.487Z,52.91
2023-06-17T12:24:18.489Z,53.20
2023-06-17T12:25:18.474Z,51.92
2023-06-17T12:26:18.470Z,52.48
2023-06-17T12:27:18.435Z,52.58
2023-06-17T12:28:18.433Z,51.50
2023-06-17T12:29:25.272Z,51.89
2023-06-17T12:30:18.406Z,51.79
2023-06-17T12:31:18.416Z,52.58
2023-06-17T12:32:18.386Z,51.89
2023-06-17T12:33:18.375Z,52.58
2023-06-17T12:34:18.372Z,52.16
2023-06-17T12:35:18.590Z,51.87
2023-06-17T12:36:18.391Z,51.00
2023-06-17T12:37:18.342Z,52.41
2023-06-17T12:38:18.328Z,53.10
2023-06-17T12:39:18.316Z,52.11
2023-06-17T12:40:18.322Z,51.52
2023-06-17T12:41:18.319Z,52.58
2023-06-17T12:42:18.323Z,53.96
2023-06-17T12:43:18.291Z,53.47
2023-06-17T12:44:19.088Z,51.79
2023-06-17T12:45:18.750Z,52.31
2023-06-17T12:46:18.337Z,51.15
2023-06-17T12:47:18.223Z,51.97
2023-06-17T12:48:18.232Z,51.89
2023-06-17T12:49:18.208Z,51.82
2023-06-17T12:50:18.231Z,52.31
2023-06-17T12:51:18.213Z,52.51
2023-06-17T12:52:18.190Z,52.58
2023-06-17T12:53:18.174Z,51.50
2023-06-17T12:54:18.944Z,51.47